createdAt,value
2022-08-01T00:02:45.529Z,18.83
2022-08-01T00:05:51.941Z,18.80
2022-08-01T00:08:59.026Z,18.80
2022-08-01T00:12:04.871Z,18.80
2022-08-01T00:15:10.825Z,18.80
2022-08-01T00:18:17.910Z,18.82
2022-08-01T00:21:23.873Z,18.81
2022-08-01T00:24:30.868Z,18.82
2022-08-01T00:27:40.503Z,18.83
2022-08-01T00:30:47.478Z,18.83
2022-08-01T00:33:52.928Z,18.85
2022-08-01T00:37:00.110Z,18.86
2022-08-01T00:40:06.995Z,18.87
2022-08-01T00:43:12.854Z,18.87
2022-08-01T00:46:21.469Z,18.87
2022-08-01T00:49:26.533Z,18.86
2022-08-01T00:52:32.572Z,18.86
2022-08-01T00:55:38.730Z,18.84
2022-08-01T00:58:44.278Z,18.82
2022-08-01T01:01:52.329Z,18.79
2022-08-01T01:05:00.101Z,18.78
2022-08-01T01:08:19.881Z,18.75
2022-08-01T01:11:33.209Z,18.73
2022-08-01T01:15:12.042Z,18.75
2022-08-01T01:18:28.128Z,18.75
2022-08-01T01:21:39.127Z,18.75
2022-08-01T01:24:51.631Z,18.75
2022-08-01T01:28:21.541Z,18.78
2022-08-01T01:31:30.065Z,18.80
2022-08-01T01:34:37.765Z,18.81
2022-08-01T01:37:45.085Z,18.81
2022-08-01T01:40:52.755Z,18.81
2022-08-01T01:43:52.354Z,18.82
2022-08-01T01:46:58.327Z,18.82
2022-08-01T01:50:04.171Z,18.82
2022-08-01T01:53:15.151Z,18.83
2022-08-01T01:56:18.027Z,18.84
2022-08-01T01:59:25.787Z,18.85
2022-08-01T02:02:30.486Z,18.86
2022-08-01T02:05:37.751Z,18.86
2022-08-01T02:08:44.228Z,18.85
2022-08-01T02:11:59.196Z,18.86
2022-08-01T02:15:01.369Z,18.88
2022-08-01T02:18:06.819Z,18.92
2022-08-01T02:21:12.066Z,18.97
2022-08-01T02:24:23.123Z,19.03
2022-08-01T02:27:41.492Z,19.09
2022-08-01T02:30:51.436Z,19.13
2022-08-01T02:34:01.035Z,19.17
2022-08-01T02:37:07.765Z,19.19
2022-08-01T02:40:14.369Z,19.21
2022-08-01T02:43:19.809Z,19.22
2022-08-01T02:46:28.297Z,19.22
2022-08-01T02:49:35.633Z,19.23
2022-08-01T02:52:43.234Z,19.24
2022-08-01T02:55:49.654Z,19.24
2022-08-01T02:58:56.444Z,19.23
2022-08-01T03:02:03.568Z,19.24
2022-08-01T03:05:10.553Z,19.27
2022-08-01T03:08:17.581Z,19.31
2022-08-01T03:11:24.165Z,19.32
2022-08-01T03:14:32.574Z,19.34
2022-08-01T03:17:39.768Z,19.37
2022-08-01T03:20:47.560Z,19.41
2022-08-01T03:23:55.240Z,19.43
2022-08-01T03:27:01.771Z,19.41
2022-08-01T03:30:07.199Z,19.39
2022-08-01T03:33:14.640Z,19.33
2022-08-01T03:36:21.255Z,19.28
2022-08-01T03:39:27.260Z,19.22
2022-08-01T03:42:39.436Z,19.15
2022-08-01T03:45:54.038Z,19.10
2022-08-01T03:49:03.915Z,19.02
2022-08-01T03:52:10.199Z,18.97
2022-08-01T03:55:20.358Z,18.93
2022-08-01T03:58:26.000Z,18.90
2022-08-01T04:01:32.661Z,18.85
2022-08-01T04:04:40.280Z,18.75
2022-08-01T04:07:48.618Z,18.67
2022-08-01T04:10:56.512Z,18.66
2022-08-01T04:14:03.577Z,18.66
2022-08-01T04:17:12.722Z,18.66
2022-08-01T04:20:19.189Z,18.69
2022-08-01T04:23:25.359Z,18.70
2022-08-01T04:26:32.746Z,18.68
2022-08-01T04:29:41.270Z,18.66
2022-08-01T04:32:53.312Z,18.64
2022-08-01T04:36:04.762Z,18.64
2022-08-01T04:39:16.765Z,18.63
2022-08-01T04:42:28.201Z,18.62
2022-08-01T04:45:29.714Z,18.60
2022-08-01T04:48:38.349Z,18.55
2022-08-01T04:51:43.861Z,18.56
2022-08-01T04:54:54.809Z,18.54
2022-08-01T04:58:05.126Z,18.56
2022-08-01T05:01:15.740Z,18.59
2022-08-01T05:04:21.451Z,18.65
2022-08-01T05:07:29.678Z,18.65
2022-08-01T05:10:35.587Z,18.66
2022-08-01T05:13:44.050Z,18.67
2022-08-01T05:16:51.173Z,18.70
2022-08-01T05:19:59.584Z,18.78
2022-08-01T05:23:06.087Z,18.83
2022-08-01T05:26:13.862Z,18.89
2022-08-01T05:29:21.091Z,18.97
2022-08-01T05:32:27.987Z,19.03
2022-08-01T05:35:48.351Z,19.14
2022-08-01T05:38:44.506Z,19.24
2022-08-01T05:41:50.588Z,19.33
2022-08-01T05:44:58.461Z,19.41
2022-08-01T05:48:06.073Z,19.43
2022-08-01T05:51:12.716Z,19.45
2022-08-01T05:54:19.369Z,19.54
2022-08-01T05:57:27.737Z,19.66
2022-08-01T06:00:35.792Z,19.75
2022-08-01T06:03:40.899Z,19.86
2022-08-01T06:06:49.083Z,19.98
2022-08-01T06:09:56.577Z,20.01
2022-08-01T06:13:02.383Z,20.05
2022-08-01T06:16:08.848Z,20.11
2022-08-01T06:19:15.107Z,20.13
2022-08-01T06:26:09.749Z,20.33
2022-08-01T06:29:16.114Z,20.46
2022-08-01T06:32:26.905Z,20.51
2022-08-01T06:35:30.774Z,20.56
2022-08-01T06:38:37.104Z,20.59
2022-08-01T06:41:44.306Z,20.66
2022-08-01T06:44:53.350Z,20.70
2022-08-01T06:48:00.049Z,20.76
2022-08-01T06:51:20.065Z,20.77
2022-08-01T06:54:25.061Z,20.80
2022-08-01T06:57:30.833Z,20.88
2022-08-01T07:00:40.904Z,20.87
2022-08-01T07:03:54.535Z,20.90
2022-08-01T07:06:56.375Z,20.89
2022-08-01T07:10:03.382Z,20.90
2022-08-01T07:13:09.851Z,20.83
2022-08-01T07:16:16.929Z,20.75
2022-08-01T07:19:25.538Z,20.72
2022-08-01T07:22:34.543Z,20.72
2022-08-01T07:25:42.239Z,20.74
2022-08-01T07:28:49.717Z,20.73
2022-08-01T07:31:55.038Z,20.71
2022-08-01T07:35:02.294Z,20.70
2022-08-01T07:38:12.825Z,20.74
2022-08-01T07:41:20.349Z,20.73
2022-08-01T07:44:30.066Z,20.73
2022-08-01T07:47:44.285Z,20.68
2022-08-01T07:50:51.088Z,20.65
2022-08-01T07:53:56.044Z,20.59
2022-08-01T07:57:01.213Z,20.59
2022-08-01T08:00:07.806Z,20.55
2022-08-01T08:03:13.130Z,20.53
2022-08-01T08:06:33.340Z,20.53
2022-08-01T08:09:38.752Z,20.51
2022-08-01T08:12:44.805Z,20.51
2022-08-01T08:15:51.585Z,20.46
2022-08-01T08:18:57.337Z,20.41
2022-08-01T08:22:03.156Z,20.33
2022-08-01T08:25:08.855Z,20.30
2022-08-01T08:28:14.445Z,20.28
2022-08-01T08:31:25.059Z,20.25
2022-08-01T08:34:32.121Z,20.23
2022-08-01T08:37:42.777Z,20.16
2022-08-01T08:40:47.868Z,20.08
2022-08-01T08:43:54.255Z,19.98
2022-08-01T08:47:05.716Z,19.88
2022-08-01T08:50:14.018Z,19.84
2022-08-01T08:53:21.707Z,19.79
2022-08-01T08:56:29.121Z,19.74
2022-08-01T08:59:34.438Z,19.72
2022-08-01T09:03:03.121Z,19.74
2022-08-01T09:06:11.330Z,19.78
2022-08-01T09:09:17.976Z,19.88
2022-08-01T09:12:23.847Z,19.95
2022-08-01T09:15:33.861Z,20.07
2022-08-01T09:18:56.738Z,20.24
2022-08-01T09:22:20.884Z,20.35
2022-08-01T09:25:29.649Z,20.45
2022-08-01T09:28:37.506Z,20.61
2022-08-01T09:31:47.590Z,20.73
2022-08-01T09:34:54.448Z,20.93
2022-08-01T09:38:02.645Z,21.15
2022-08-01T09:41:12.036Z,21.43
2022-08-01T09:44:18.133Z,21.75
2022-08-01T09:47:25.493Z,22.01
2022-08-01T09:50:31.115Z,22.19
2022-08-01T09:53:38.182Z,22.44
2022-08-01T09:56:44.154Z,22.65
2022-08-01T10:00:01.142Z,22.79
2022-08-01T10:03:10.045Z,22.92
2022-08-01T10:06:09.971Z,23.05
2022-08-01T10:09:17.966Z,23.22
2022-08-01T10:12:25.861Z,23.40
2022-08-01T10:15:37.071Z,23.59
2022-08-01T10:18:35.085Z,23.81
2022-08-01T10:21:54.716Z,23.95
2022-08-01T10:24:53.555Z,24.10
2022-08-01T10:28:01.341Z,24.39
2022-08-01T10:31:13.205Z,24.68
2022-08-01T10:34:23.692Z,24.92
2022-08-01T10:37:32.445Z,25.16
2022-08-01T10:40:38.454Z,25.30
2022-08-01T10:43:47.050Z,25.40
2022-08-01T10:46:59.412Z,25.52
2022-08-01T10:50:21.943Z,25.57
2022-08-01T10:53:42.262Z,25.83
2022-08-01T10:56:39.875Z,26.03
2022-08-01T10:59:50.093Z,26.28
2022-08-01T11:03:01.176Z,26.32
2022-08-01T11:06:06.993Z,26.24
2022-08-01T11:09:16.498Z,26.30
2022-08-01T11:12:30.453Z,26.35
2022-08-01T11:15:49.948Z,26.52
2022-08-01T11:18:46.419Z,26.64
2022-08-01T11:22:14.627Z,26.77
2022-08-01T11:26:06.012Z,26.79
2022-08-01T11:28:36.437Z,26.81
2022-08-01T11:31:45.313Z,26.73
2022-08-01T11:35:14.075Z,26.71
2022-08-01T11:38:41.528Z,26.81
2022-08-01T11:41:50.038Z,26.84
2022-08-01T11:45:03.876Z,26.85
2022-08-01T11:48:10.636Z,26.77
2022-08-01T11:51:21.522Z,26.68
2022-08-01T11:54:34.742Z,26.61
2022-08-01T11:57:42.514Z,26.53
2022-08-01T12:00:53.789Z,26.40
2022-08-01T12:04:01.847Z,26.32
2022-08-01T12:07:07.961Z,26.22
2022-08-01T12:10:32.272Z,26.09
2022-08-01T12:13:40.848Z,26.03
2022-08-01T12:16:48.403Z,25.99
2022-08-01T12:19:54.697Z,25.95
2022-08-01T12:23:00.742Z,25.94
2022-08-01T12:26:25.821Z,25.93
2022-08-01T12:29:16.809Z,25.90
2022-08-01T12:32:47.778Z,25.90
2022-08-01T12:35:55.729Z,25.90
2022-08-01T12:39:06.839Z,25.85
2022-08-01T12:42:13.350Z,25.85
2022-08-01T12:45:20.437Z,25.89
2022-08-01T12:48:28.331Z,25.95
2022-08-01T12:51:33.039Z,25.97
2022-08-01T12:54:38.757Z,26.05
2022-08-01T12:57:45.135Z,26.15
2022-08-01T13:00:52.799Z,26.27
2022-08-01T13:04:14.855Z,26.29
2022-08-01T13:07:22.191Z,26.38
2022-08-01T13:10:28.348Z,26.48
2022-08-01T13:13:34.129Z,26.60
2022-08-01T13:16:56.295Z,26.72
2022-08-01T13:20:02.353Z,26.84
2022-08-01T13:23:09.557Z,27.00
2022-08-01T13:26:17.824Z,27.03
2022-08-01T13:29:28.438Z,27.02
2022-08-01T13:32:38.394Z,27.07
2022-08-01T13:35:44.475Z,27.07
2022-08-01T13:39:08.080Z,27.06
2022-08-01T13:42:18.413Z,27.06
2022-08-01T13:45:22.483Z,27.06
2022-08-01T13:48:32.319Z,27.06
2022-08-01T13:51:39.605Z,27.04
2022-08-01T13:54:46.940Z,27.04
2022-08-01T13:57:52.622Z,27.02
2022-08-01T14:01:00.665Z,26.97
2022-08-01T14:04:11.502Z,26.95
2022-08-01T14:07:21.158Z,26.95
2022-08-01T14:10:28.695Z,26.97
2022-08-01T14:13:36.896Z,27.01
2022-08-01T14:16:42.001Z,26.99
2022-08-01T14:19:48.263Z,27.00
2022-08-01T14:22:56.154Z,27.01
2022-08-01T14:26:08.201Z,27.07
2022-08-01T14:29:09.123Z,27.08
2022-08-01T14:32:15.524Z,27.12
2022-08-01T14:35:23.276Z,27.15
2022-08-01T14:38:33.557Z,27.13
2022-08-01T14:41:42.122Z,27.12
2022-08-01T14:44:49.761Z,27.15
2022-08-01T14:47:57.288Z,27.17
2022-08-01T14:51:03.810Z,27.11
2022-08-01T14:54:10.024Z,27.07
2022-08-01T14:57:15.742Z,27.02
2022-08-01T15:00:23.931Z,27.01
2022-08-01T15:03:30.900Z,26.97
2022-08-01T15:06:36.767Z,26.93
2022-08-01T15:09:43.592Z,26.90
2022-08-01T15:12:52.617Z,26.85
2022-08-01T15:16:00.022Z,26.72
2022-08-01T15:19:06.186Z,26.64
2022-08-01T15:22:17.076Z,26.59
2022-08-01T15:25:41.171Z,26.51
2022-08-01T15:28:42.976Z,26.39
2022-08-01T15:31:50.395Z,26.30
2022-08-01T15:35:00.047Z,26.20
2022-08-01T15:38:07.135Z,26.14
2022-08-01T15:41:16.081Z,26.09
2022-08-01T15:44:21.864Z,26.00
2022-08-01T15:47:28.394Z,25.94
2022-08-01T15:50:34.539Z,25.88
2022-08-01T15:53:40.278Z,25.80
2022-08-01T15:56:48.238Z,25.73
2022-08-01T15:59:57.833Z,25.69
2022-08-01T16:03:00.240Z,25.61
2022-08-01T16:06:07.725Z,25.51
2022-08-01T16:09:19.215Z,25.41
2022-08-01T16:12:20.872Z,25.29
2022-08-01T16:15:33.558Z,25.11
2022-08-01T16:18:33.794Z,24.95
2022-08-01T16:21:39.814Z,24.78
2022-08-01T16:24:44.871Z,24.68
2022-08-01T16:27:50.322Z,24.56
2022-08-01T16:31:14.910Z,24.44
2022-08-01T16:34:05.187Z,24.32
2022-08-01T16:37:11.647Z,24.25
2022-08-01T16:40:17.621Z,24.17
2022-08-01T16:43:24.199Z,24.09
2022-08-01T16:46:29.626Z,24.01
2022-08-01T16:49:38.236Z,23.93
2022-08-01T16:52:44.663Z,23.84
2022-08-01T16:55:53.953Z,23.75
2022-08-01T16:59:00.753Z,23.66
2022-08-01T17:02:07.021Z,23.52
2022-08-01T17:05:13.526Z,23.40
2022-08-01T17:08:24.406Z,23.32
2022-08-01T17:11:33.329Z,23.21
2022-08-01T17:14:40.730Z,23.08
2022-08-01T17:17:47.583Z,23.01
2022-08-01T17:20:54.100Z,22.91
2022-08-01T17:24:00.426Z,22.80
2022-08-01T17:27:12.744Z,22.68
2022-08-01T17:30:16.364Z,22.57
2022-08-01T17:33:22.247Z,22.53
2022-08-01T17:36:28.528Z,22.50
2022-08-01T17:39:38.996Z,22.44
2022-08-01T17:42:42.160Z,22.35
2022-08-01T17:45:50.988Z,22.29
2022-08-01T17:48:56.161Z,22.21
2022-08-01T17:52:02.451Z,22.17
2022-08-01T17:55:55.606Z,22.10
2022-08-01T17:58:49.670Z,22.05
2022-08-01T18:01:27.842Z,21.97
2022-08-01T18:04:35.760Z,21.84
2022-08-01T18:08:00.474Z,21.69
2022-08-01T18:10:51.661Z,21.63
2022-08-01T18:13:59.799Z,21.55
2022-08-01T18:17:06.016Z,21.47
2022-08-01T18:20:13.103Z,21.42
2022-08-01T18:23:19.761Z,21.38
2022-08-01T18:26:25.428Z,21.37
2022-08-01T18:29:47.099Z,21.35
2022-08-01T18:32:37.939Z,21.33
2022-08-01T18:35:51.908Z,21.31
2022-08-01T18:38:50.618Z,21.27
2022-08-01T18:42:00.765Z,21.26
2022-08-01T18:45:06.792Z,21.24
2022-08-01T18:48:12.361Z,21.22
2022-08-01T18:51:18.210Z,21.20
2022-08-01T18:54:24.078Z,21.16
2022-08-01T18:57:29.329Z,21.11
2022-08-01T19:00:34.181Z,21.10
2022-08-01T19:03:42.802Z,21.09
2022-08-01T19:06:47.949Z,21.09
2022-08-01T19:09:55.457Z,21.07
2022-08-01T19:13:03.313Z,21.07
2022-08-01T19:16:09.883Z,21.08
2022-08-01T19:19:27.450Z,21.09
2022-08-01T19:22:28.875Z,21.09
2022-08-01T19:25:34.158Z,21.06
2022-08-01T19:28:41.171Z,21.06
2022-08-01T19:31:49.215Z,21.08
2022-08-01T19:35:00.375Z,21.07
2022-08-01T19:38:07.876Z,21.03
2022-08-01T19:41:15.058Z,21.03
2022-08-01T19:44:22.365Z,21.02
2022-08-01T19:47:53.991Z,21.00
2022-08-01T19:50:35.256Z,20.95
2022-08-01T19:53:41.712Z,20.88
2022-08-01T19:56:52.529Z,20.81
2022-08-01T20:00:02.247Z,20.75
2022-08-01T20:03:08.620Z,20.71
2022-08-01T20:06:17.774Z,20.63
2022-08-01T20:09:24.737Z,20.63
2022-08-01T20:12:36.415Z,20.59
2022-08-01T20:15:42.828Z,20.52
2022-08-01T20:18:49.392Z,20.50
2022-08-01T20:22:04.128Z,20.47
2022-08-01T20:25:10.940Z,20.44
2022-08-01T20:28:18.236Z,20.42
2022-08-01T20:31:25.205Z,20.41
2022-08-01T20:34:37.171Z,20.40
2022-08-01T20:38:06.283Z,20.42
2022-08-01T20:40:54.783Z,20.42
2022-08-01T20:44:02.602Z,20.41
2022-08-01T20:47:10.002Z,20.40
2022-08-01T20:50:54.386Z,20.38
2022-08-01T20:53:43.213Z,20.39
2022-08-01T20:57:13.306Z,20.38
2022-08-01T21:00:21.776Z,20.35
2022-08-01T21:03:37.145Z,20.32
2022-08-01T21:06:47.825Z,20.31
2022-08-01T21:09:53.814Z,20.30
2022-08-01T21:13:20.971Z,20.25
2022-08-01T21:16:26.846Z,20.18
2022-08-01T21:19:38.630Z,20.12
2022-08-01T21:22:58.792Z,20.11
2022-08-01T21:26:03.931Z,20.09
2022-08-01T21:29:09.013Z,20.09
2022-08-01T21:32:21.068Z,20.11
2022-08-01T21:35:29.693Z,20.11
2022-08-01T21:38:35.334Z,20.11
2022-08-01T21:42:04.724Z,20.11
2022-08-01T21:44:48.690Z,20.11
2022-08-01T21:47:55.932Z,20.09
2022-08-01T21:51:19.747Z,20.09
2022-08-01T21:54:55.055Z,20.05
2022-08-01T21:58:29.800Z,20.02
2022-08-01T22:01:51.553Z,20.01
2022-08-01T22:05:13.507Z,20.00
2022-08-01T22:08:21.388Z,19.99
2022-08-01T22:11:28.900Z,20.00
2022-08-01T22:14:35.173Z,19.97
2022-08-01T22:17:41.334Z,19.96
2022-08-01T22:20:47.886Z,19.94
2022-08-01T22:23:52.906Z,19.92
2022-08-01T22:27:00.203Z,19.92
2022-08-01T22:30:19.549Z,19.94
2022-08-01T22:33:26.795Z,19.94
2022-08-01T22:36:33.534Z,19.95
2022-08-01T22:39:38.169Z,19.94
2022-08-01T22:43:00.283Z,19.92
2022-08-01T22:46:22.883Z,19.90
2022-08-01T22:49:38.542Z,19.88
2022-08-01T22:52:47.134Z,19.87
2022-08-01T22:55:59.361Z,19.84
2022-08-01T22:59:03.127Z,19.83
2022-08-01T23:02:08.908Z,19.82
2022-08-01T23:05:19.649Z,19.77
2022-08-01T23:08:24.472Z,19.76
2022-08-01T23:11:30.621Z,19.75
2022-08-01T23:14:35.483Z,19.76
2022-08-01T23:17:45.807Z,19.79
2022-08-01T23:20:51.384Z,19.79
2022-08-01T23:23:57.053Z,19.79
2022-08-01T23:27:01.911Z,19.81
2022-08-01T23:30:07.437Z,19.83
2022-08-01T23:33:14.871Z,19.83
2022-08-01T23:36:21.946Z,19.82
2022-08-01T23:39:27.275Z,19.81
2022-08-01T23:42:34.240Z,19.79
2022-08-01T23:46:03.247Z,19.79
2022-08-01T23:48:48.902Z,19.79
2022-08-01T23:51:56.633Z,19.79
2022-08-01T23:55:03.458Z,19.77
2022-08-01T23:58:10.406Z,19.75
